createdAt,value
2022-11-16T00:02:06.876Z,42.25
2022-11-16T00:04:36.579Z,42.88
2022-11-16T00:07:04.347Z,42.85
2022-11-16T00:09:32.502Z,37.65
2022-11-16T00:12:17.046Z,40.53
2022-11-16T00:15:02.800Z,40.17
2022-11-16T00:17:45.388Z,39.80
2022-11-16T00:20:30.205Z,38.75
2022-11-16T00:23:00.228Z,38.65
2022-11-16T00:25:53.587Z,38.88
2022-11-16T00:28:29.390Z,37.70
2022-11-16T00:31:09.213Z,40.10
2022-11-16T00:33:55.063Z,37.90
2022-11-16T00:36:46.620Z,37.72
2022-11-16T00:39:25.017Z,39.10
2022-11-16T00:42:01.982Z,38.83
2022-11-16T00:44:47.588Z,37.65
2022-11-16T00:47:16.400Z,38.65
2022-11-16T00:49:43.027Z,41.90
2022-11-16T00:52:09.692Z,42.40
2022-11-16T00:54:39.118Z,39.00
2022-11-16T00:57:05.649Z,38.35
2022-11-16T00:59:36.168Z,39.83
2022-11-16T01:02:03.656Z,36.28
2022-11-16T01:04:31.185Z,35.47
2022-11-16T01:06:57.895Z,35.63
2022-11-16T01:09:26.702Z,36.80
2022-11-16T01:12:12.753Z,39.30
2022-11-16T01:14:43.724Z,35.50
2022-11-16T01:17:11.642Z,38.50
2022-11-16T01:19:39.555Z,37.22
2022-11-16T01:22:06.734Z,39.35
2022-11-16T01:24:39.538Z,36.95
2022-11-16T01:27:09.038Z,37.53
2022-11-16T01:29:35.714Z,33.35
2022-11-16T01:32:02.235Z,31.92
2022-11-16T01:34:28.839Z,34.03
2022-11-16T01:36:55.399Z,33.63
2022-11-16T01:39:21.901Z,32.85
2022-11-16T01:41:48.621Z,36.10
2022-11-16T01:44:15.112Z,37.90
2022-11-16T01:46:47.961Z,38.47
2022-11-16T01:49:19.528Z,37.47
2022-11-16T01:51:52.903Z,36.40
2022-11-16T01:54:21.812Z,37.40
2022-11-16T01:56:56.574Z,36.75
2022-11-16T01:59:26.227Z,36.55
2022-11-16T02:01:52.919Z,37.70
2022-11-16T02:04:19.630Z,37.00
2022-11-16T02:07:17.273Z,36.55
2022-11-16T02:09:58.344Z,36.28
2022-11-16T02:12:40.286Z,35.60
2022-11-16T02:15:34.846Z,37.38
2022-11-16T02:18:04.310Z,36.47
2022-11-16T02:20:51.791Z,35.65
2022-11-16T02:23:33.725Z,35.25
2022-11-16T02:26:09.566Z,34.80
2022-11-16T02:29:04.170Z,32.28
2022-11-16T02:31:41.721Z,35.90
2022-11-16T02:34:11.444Z,35.63
2022-11-16T02:36:41.627Z,31.13
2022-11-16T02:39:14.861Z,33.47
2022-11-16T02:41:44.178Z,33.40
2022-11-16T02:44:40.292Z,33.50
2022-11-16T02:47:11.803Z,31.00
2022-11-16T02:49:45.444Z,29.88
2022-11-16T02:52:22.850Z,29.70
2022-11-16T02:54:49.659Z,31.27
2022-11-16T02:57:26.332Z,31.00
2022-11-16T03:00:01.334Z,29.40
2022-11-16T03:02:42.753Z,30.98
2022-11-16T03:05:18.288Z,30.70
2022-11-16T03:07:50.987Z,33.17
2022-11-16T03:10:52.084Z,34.17
2022-11-16T03:13:23.401Z,30.90
2022-11-16T03:15:50.905Z,29.27
2022-11-16T03:18:22.393Z,34.38
2022-11-16T03:20:52.920Z,34.13
2022-11-16T03:23:20.561Z,32.65
2022-11-16T03:25:51.706Z,34.10
2022-11-16T03:28:44.135Z,31.35
2022-11-16T03:33:53.920Z,33.50
2022-11-16T03:36:31.988Z,32.40
2022-11-16T03:39:04.432Z,31.00
2022-11-16T03:41:33.195Z,31.33
2022-11-16T03:44:00.610Z,30.27
2022-11-16T03:46:27.240Z,31.92
2022-11-16T03:49:01.390Z,30.33
2022-11-16T03:51:30.570Z,29.73
2022-11-16T03:54:05.947Z,32.42
2022-11-16T03:56:35.653Z,31.73
2022-11-16T03:59:02.241Z,29.65
2022-11-16T04:01:29.045Z,29.92
2022-11-16T04:04:01.759Z,29.33
2022-11-16T04:06:47.021Z,27.98
2022-11-16T04:09:35.215Z,29.80
2022-11-16T04:12:20.359Z,28.70
2022-11-16T04:15:19.558Z,28.80
2022-11-16T04:18:04.451Z,30.48
2022-11-16T04:20:52.750Z,27.33
2022-11-16T04:23:40.711Z,28.80
2022-11-16T04:26:10.442Z,29.52
2022-11-16T04:28:38.061Z,29.10
2022-11-16T04:31:24.228Z,26.80
2022-11-16T04:34:11.123Z,25.38
2022-11-16T04:36:56.655Z,27.17
2022-11-16T04:39:23.190Z,27.48
2022-11-16T04:42:14.310Z,29.48
2022-11-16T04:44:59.401Z,27.75
2022-11-16T04:47:30.916Z,29.83
2022-11-16T04:49:57.507Z,27.20
2022-11-16T04:52:24.222Z,27.00
2022-11-16T04:54:53.772Z,27.35
2022-11-16T04:57:20.644Z,25.95
2022-11-16T04:59:47.303Z,27.90
2022-11-16T05:02:15.226Z,28.33
2022-11-16T05:04:46.548Z,28.85
2022-11-16T05:07:17.281Z,26.17
2022-11-16T05:09:46.551Z,26.85
2022-11-16T05:12:16.054Z,28.15
2022-11-16T05:14:46.992Z,27.17
2022-11-16T05:17:14.695Z,28.25
2022-11-16T05:19:59.895Z,26.58
2022-11-16T05:22:26.745Z,26.92
2022-11-16T05:24:53.707Z,27.48
2022-11-16T05:27:22.988Z,25.73
2022-11-16T05:29:50.794Z,29.70
2022-11-16T05:32:19.343Z,28.02
2022-11-16T05:34:46.646Z,28.80
2022-11-16T05:37:21.153Z,31.08
2022-11-16T05:39:50.896Z,28.80
2022-11-16T05:42:17.574Z,32.08
2022-11-16T05:44:44.760Z,28.63
2022-11-16T05:47:11.435Z,31.15
2022-11-16T05:49:38.125Z,30.08
2022-11-16T05:52:04.700Z,26.17
2022-11-16T05:54:31.390Z,31.75
2022-11-16T05:57:00.764Z,30.67
2022-11-16T05:59:29.341Z,29.55
2022-11-16T06:01:55.991Z,28.23
2022-11-16T06:04:24.813Z,30.73
2022-11-16T06:06:52.071Z,31.83
2022-11-16T06:09:21.987Z,25.92
2022-11-16T06:11:48.869Z,31.30
2022-11-16T06:14:15.723Z,32.78
2022-11-16T06:16:42.360Z,31.55
2022-11-16T06:19:11.143Z,32.45
2022-11-16T06:21:37.687Z,33.40
2022-11-16T06:24:09.635Z,33.80
2022-11-16T06:29:04.183Z,34.50
2022-11-16T06:31:34.045Z,33.55
2022-11-16T06:34:00.645Z,32.30
2022-11-16T06:36:27.216Z,33.38
2022-11-16T06:38:53.969Z,35.03
2022-11-16T06:41:21.849Z,30.30
2022-11-16T06:43:48.453Z,31.58
2022-11-16T06:46:23.933Z,31.42
2022-11-16T06:48:50.896Z,31.27
2022-11-16T06:51:21.659Z,31.73
2022-11-16T06:53:54.014Z,29.58
2022-11-16T06:56:23.598Z,31.25
2022-11-16T06:58:53.271Z,31.65
2022-11-16T07:01:20.752Z,32.22
2022-11-16T07:03:55.367Z,28.08
2022-11-16T07:06:27.930Z,30.02
2022-11-16T07:08:54.557Z,30.02
2022-11-16T07:11:21.477Z,30.45
2022-11-16T07:13:49.387Z,31.40
2022-11-16T07:16:16.035Z,33.20
2022-11-16T07:18:42.686Z,35.10
2022-11-16T07:21:15.979Z,33.33
2022-11-16T07:23:43.456Z,36.17
2022-11-16T07:26:13.707Z,33.78
2022-11-16T07:28:45.022Z,32.35
2022-11-16T07:31:16.014Z,32.08
2022-11-16T07:33:45.540Z,34.83
2022-11-16T07:36:14.429Z,33.85
2022-11-16T07:38:47.603Z,36.63
2022-11-16T07:41:17.094Z,36.97
2022-11-16T07:43:47.200Z,35.55
2022-11-16T07:49:16.056Z,32.53
2022-11-16T07:51:43.358Z,33.22
2022-11-16T07:54:16.438Z,32.90
2022-11-16T07:56:43.800Z,36.75
2022-11-16T07:59:17.424Z,36.40
2022-11-16T08:01:46.508Z,35.67
2022-11-16T08:04:13.269Z,36.45
2022-11-16T08:06:41.980Z,36.25
2022-11-16T08:09:09.483Z,36.85
2022-11-16T08:11:36.101Z,38.20
2022-11-16T08:14:07.262Z,37.95
2022-11-16T08:16:36.420Z,35.57
2022-11-16T08:19:05.786Z,38.20
2022-11-16T08:21:33.013Z,36.08
2022-11-16T08:24:01.289Z,35.67
2022-11-16T08:26:27.991Z,32.97
2022-11-16T08:28:56.605Z,34.58
2022-11-16T08:31:26.291Z,33.00
2022-11-16T08:33:53.039Z,34.53
2022-11-16T08:36:20.587Z,33.20
2022-11-16T08:38:49.429Z,34.05
2022-11-16T08:41:17.348Z,30.27
2022-11-16T08:43:47.135Z,32.30
2022-11-16T08:46:18.272Z,31.35
2022-11-16T08:48:46.096Z,32.53
2022-11-16T08:51:27.120Z,30.58
2022-11-16T08:54:00.007Z,31.52
2022-11-16T08:56:27.530Z,31.92
2022-11-16T08:58:58.667Z,33.08
2022-11-16T09:01:28.709Z,32.03
2022-11-16T09:03:56.866Z,34.97
2022-11-16T09:06:24.816Z,34.30
2022-11-16T09:08:51.992Z,33.05
2022-11-16T09:11:22.019Z,32.20
2022-11-16T09:13:50.472Z,32.90
2022-11-16T09:16:17.950Z,36.17
2022-11-16T09:18:49.941Z,36.83
2022-11-16T09:23:56.173Z,33.58
2022-11-16T09:26:24.588Z,32.33
2022-11-16T09:29:03.417Z,31.60
2022-11-16T09:31:34.288Z,31.88
2022-11-16T09:34:01.377Z,33.75
2022-11-16T09:36:29.054Z,31.90
2022-11-16T09:39:23.639Z,31.98
2022-11-16T09:42:16.252Z,32.58
2022-11-16T09:45:06.420Z,31.45
2022-11-16T09:47:51.825Z,32.58
2022-11-16T09:50:51.817Z,32.58
2022-11-16T09:53:34.212Z,33.35
2022-11-16T09:56:10.841Z,34.05
2022-11-16T09:59:06.270Z,32.92
2022-11-16T10:02:02.208Z,30.50
2022-11-16T10:04:46.560Z,31.13
2022-11-16T10:07:16.899Z,28.02
2022-11-16T10:09:47.002Z,28.45
2022-11-16T10:12:40.333Z,28.08
2022-11-16T10:15:15.504Z,28.40
2022-11-16T10:17:59.949Z,28.67
2022-11-16T10:20:54.472Z,29.25
2022-11-16T10:23:39.617Z,27.92
2022-11-16T10:26:21.611Z,27.88
2022-11-16T10:31:21.600Z,33.55
2022-11-16T10:33:52.377Z,25.45
2022-11-16T10:36:27.081Z,23.17
2022-11-16T10:38:57.114Z,23.83
2022-11-16T10:41:43.262Z,22.25
2022-11-16T10:44:21.913Z,22.08
2022-11-16T10:47:05.632Z,21.70
2022-11-16T10:49:40.882Z,25.67
2022-11-16T10:52:10.453Z,25.55
2022-11-16T10:54:42.874Z,24.30
2022-11-16T10:57:15.982Z,21.02
2022-11-16T11:02:33.684Z,19.87
2022-11-16T11:05:17.471Z,18.70
2022-11-16T11:08:02.186Z,17.38
2022-11-16T11:10:32.282Z,21.80
2022-11-16T11:13:11.283Z,18.40
2022-11-16T11:15:40.508Z,21.52
2022-11-16T11:18:16.104Z,16.35
2022-11-16T11:20:46.768Z,14.65
2022-11-16T11:23:22.302Z,15.57
2022-11-16T11:26:05.455Z,18.42
2022-11-16T11:28:34.863Z,19.60
2022-11-16T11:31:17.142Z,18.10
2022-11-16T11:33:57.355Z,17.23
2022-11-16T11:36:38.547Z,18.20
2022-11-16T11:39:26.603Z,18.57
2022-11-16T11:42:07.374Z,14.35
2022-11-16T11:44:45.526Z,13.70
2022-11-16T11:50:21.881Z,12.82
2022-11-16T11:53:19.467Z,20.27
2022-11-16T11:55:46.195Z,13.02
2022-11-16T11:58:19.525Z,13.70
2022-11-16T12:01:24.900Z,17.15
2022-11-16T12:04:44.175Z,12.68
2022-11-16T12:07:36.903Z,16.02
2022-11-16T12:10:22.584Z,17.60
2022-11-16T12:12:56.110Z,13.27
2022-11-16T12:15:55.366Z,13.43
2022-11-16T12:18:36.953Z,15.90
2022-11-16T12:21:27.032Z,14.10
2022-11-16T12:24:17.472Z,15.05
2022-11-16T12:27:12.379Z,15.60
2022-11-16T12:29:54.281Z,17.45
2022-11-16T12:33:02.469Z,16.67
2022-11-16T12:35:53.172Z,15.43
2022-11-16T12:38:38.055Z,15.68
2022-11-16T12:41:31.223Z,14.88
2022-11-16T12:44:00.776Z,15.10
2022-11-16T12:46:55.705Z,18.23
2022-11-16T12:49:40.041Z,16.80
2022-11-16T12:52:45.574Z,17.42
2022-11-16T12:55:26.278Z,17.73
2022-11-16T12:58:21.956Z,16.58
2022-11-16T13:00:54.699Z,17.02
2022-11-16T13:03:54.309Z,16.67
2022-11-16T13:06:32.780Z,17.02
2022-11-16T13:09:28.702Z,20.48
2022-11-16T13:11:58.579Z,16.48
2022-11-16T13:14:38.084Z,16.33
2022-11-16T13:17:06.763Z,16.02
2022-11-16T13:19:39.915Z,16.75
2022-11-16T13:22:33.019Z,19.25
2022-11-16T13:25:20.957Z,18.70
2022-11-16T13:27:58.426Z,16.83
2022-11-16T13:30:33.620Z,19.67
2022-11-16T13:33:40.744Z,18.70
2022-11-16T13:36:32.460Z,18.05
2022-11-16T13:38:59.370Z,18.77
2022-11-16T13:41:50.603Z,19.75
2022-11-16T13:44:22.976Z,18.25
2022-11-16T13:47:04.073Z,18.67
2022-11-16T13:49:35.035Z,17.70
2022-11-16T13:52:23.118Z,18.93
2022-11-16T13:55:22.121Z,17.65
2022-11-16T13:57:59.373Z,18.10
2022-11-16T14:00:33.576Z,17.33
2022-11-16T14:03:16.430Z,16.58
2022-11-16T14:05:48.251Z,16.98
2022-11-16T14:08:26.777Z,16.63
2022-11-16T14:10:53.281Z,17.42
2022-11-16T14:13:39.981Z,17.50
2022-11-16T14:16:21.857Z,17.20
2022-11-16T14:19:00.326Z,17.70
2022-11-16T14:21:58.055Z,16.40
2022-11-16T14:24:49.012Z,16.25
2022-11-16T14:27:49.392Z,17.08
2022-11-16T14:30:35.805Z,16.77
2022-11-16T14:33:02.867Z,15.57
2022-11-16T14:35:39.049Z,16.67
2022-11-16T14:38:42.026Z,15.00
2022-11-16T14:41:21.179Z,14.80
2022-11-16T14:43:53.089Z,14.65
2022-11-16T14:49:01.041Z,13.65
2022-11-16T14:51:31.419Z,14.02
2022-11-16T14:54:19.348Z,14.23
2022-11-16T14:57:20.474Z,13.73
2022-11-16T15:00:07.031Z,16.20
2022-11-16T15:02:35.433Z,14.65
2022-11-16T15:05:05.215Z,13.90
2022-11-16T15:07:33.961Z,13.65
2022-11-16T15:10:06.333Z,13.80
2022-11-16T15:12:41.723Z,22.48
2022-11-16T15:15:27.992Z,21.90
2022-11-16T15:18:12.206Z,15.45
2022-11-16T15:20:52.576Z,14.88
2022-11-16T15:23:21.599Z,18.33
2022-11-16T15:25:54.571Z,20.23
2022-11-16T15:28:34.970Z,21.10
2022-11-16T15:31:06.081Z,21.40
2022-11-16T15:33:40.472Z,21.13
2022-11-16T15:36:37.762Z,20.73
2022-11-16T15:39:06.316Z,21.33
2022-11-16T15:41:34.198Z,26.80
2022-11-16T15:44:15.052Z,26.40
2022-11-16T15:46:47.324Z,25.63
2022-11-16T15:49:41.049Z,25.27
2022-11-16T15:52:07.752Z,28.70
2022-11-16T15:55:02.040Z,27.55
2022-11-16T15:57:31.248Z,26.85
2022-11-16T16:00:02.277Z,27.30
2022-11-16T16:02:32.920Z,26.45
2022-11-16T16:05:04.993Z,26.73
2022-11-16T16:07:40.012Z,26.40
2022-11-16T16:10:30.119Z,27.63
2022-11-16T16:13:00.541Z,28.42
2022-11-16T16:15:43.204Z,26.98
2022-11-16T16:18:41.305Z,25.27
2022-11-16T16:21:09.620Z,27.27
2022-11-16T16:24:10.689Z,26.98
2022-11-16T16:26:39.317Z,25.67
2022-11-16T16:29:09.975Z,27.48
2022-11-16T16:31:42.776Z,25.95
2022-11-16T16:34:13.874Z,26.73
2022-11-16T16:36:40.468Z,26.63
2022-11-16T16:39:07.329Z,26.73
2022-11-16T16:41:36.253Z,26.17
2022-11-16T16:44:09.572Z,25.92
2022-11-16T16:46:38.438Z,26.35
2022-11-16T16:49:08.181Z,26.73
2022-11-16T16:51:37.094Z,25.27
2022-11-16T16:54:03.940Z,26.83
2022-11-16T16:56:38.229Z,25.60
2022-11-16T16:59:19.804Z,25.80
2022-11-16T17:01:47.262Z,25.65
2022-11-16T17:04:37.274Z,24.65
2022-11-16T17:07:06.352Z,24.77
2022-11-16T17:09:33.893Z,25.45
2022-11-16T17:12:00.649Z,24.65
2022-11-16T17:14:29.367Z,24.33
2022-11-16T17:16:56.275Z,23.42
2022-11-16T17:19:26.125Z,23.80
2022-11-16T17:21:56.551Z,23.35
2022-11-16T17:24:24.174Z,24.08
2022-11-16T17:26:54.030Z,23.42
2022-11-16T17:29:23.438Z,21.98
2022-11-16T17:31:50.645Z,21.50
2022-11-16T17:34:19.375Z,21.27
2022-11-16T17:36:46.418Z,20.67
2022-11-16T17:39:23.500Z,21.08
2022-11-16T17:41:52.088Z,21.38
2022-11-16T17:44:22.100Z,21.85
2022-11-16T17:46:52.627Z,21.38
2022-11-16T17:49:19.476Z,21.63
2022-11-16T17:51:47.972Z,21.35
2022-11-16T17:54:17.965Z,26.60
2022-11-16T17:56:44.546Z,21.88
2022-11-16T17:59:14.553Z,26.35
2022-11-16T18:01:42.104Z,25.92
2022-11-16T18:04:08.852Z,23.10
2022-11-16T18:06:36.780Z,21.83
2022-11-16T18:09:06.841Z,26.40
2022-11-16T18:11:36.176Z,25.25
2022-11-16T18:14:06.256Z,24.63
2022-11-16T18:16:33.775Z,21.30
2022-11-16T18:19:03.004Z,22.50
2022-11-16T18:21:30.533Z,23.33
2022-11-16T18:23:59.463Z,23.63
2022-11-16T18:26:32.227Z,23.33
2022-11-16T18:29:09.170Z,23.88
2022-11-16T18:31:35.974Z,24.77
2022-11-16T18:34:05.380Z,24.00
2022-11-16T18:36:32.627Z,24.90
2022-11-16T18:38:59.326Z,24.45
2022-11-16T18:41:29.063Z,25.90
2022-11-16T18:43:58.576Z,24.30
2022-11-16T18:46:30.729Z,25.38
2022-11-16T18:48:58.105Z,24.27
2022-11-16T18:51:28.452Z,23.40
2022-11-16T18:53:55.657Z,22.55
2022-11-16T18:56:24.576Z,27.20
2022-11-16T18:58:53.229Z,24.05
2022-11-16T19:01:26.111Z,28.10
2022-11-16T19:03:54.855Z,26.52
2022-11-16T19:06:22.590Z,24.52
2022-11-16T19:09:03.671Z,24.60
2022-11-16T19:11:30.486Z,24.88
2022-11-16T19:14:09.480Z,27.92
2022-11-16T19:16:43.369Z,23.63
2022-11-16T19:19:22.205Z,23.48
2022-11-16T19:21:48.956Z,25.33
2022-11-16T19:24:17.194Z,25.25
2022-11-16T19:26:44.588Z,25.83
2022-11-16T19:29:11.386Z,25.23
2022-11-16T19:31:41.259Z,25.67
2022-11-16T19:34:10.984Z,26.17
2022-11-16T19:36:37.941Z,27.23
2022-11-16T19:39:08.991Z,26.27
2022-11-16T19:41:39.667Z,27.83
2022-11-16T19:44:06.333Z,26.27
2022-11-16T19:46:36.744Z,25.40
2022-11-16T19:49:03.773Z,27.02
2022-11-16T19:51:32.965Z,28.00
2022-11-16T19:54:01.574Z,29.20
2022-11-16T19:56:28.383Z,28.08
2022-11-16T19:58:59.564Z,28.52
2022-11-16T20:01:31.070Z,29.48
2022-11-16T20:04:05.167Z,28.63
2022-11-16T20:06:35.293Z,28.92
2022-11-16T20:09:11.056Z,29.85
2022-11-16T20:11:45.285Z,30.15
2022-11-16T20:14:15.768Z,31.73
2022-11-16T20:16:49.456Z,32.28
2022-11-16T20:19:29.545Z,30.00
2022-11-16T20:21:59.671Z,31.27
2022-11-16T20:24:26.569Z,30.27
2022-11-16T20:26:56.335Z,31.30
2022-11-16T20:29:25.217Z,31.17
2022-11-16T20:31:51.836Z,30.83
2022-11-16T20:34:22.321Z,31.33
2022-11-16T20:36:51.029Z,31.75
2022-11-16T20:39:20.205Z,32.22
2022-11-16T20:41:50.191Z,31.50
2022-11-16T20:44:26.355Z,31.98
2022-11-16T20:46:55.788Z,32.45
2022-11-16T20:49:26.054Z,33.08
2022-11-16T20:51:58.645Z,34.03
2022-11-16T20:54:29.121Z,34.20
2022-11-16T20:57:01.194Z,34.15
2022-11-16T20:59:29.336Z,33.78
2022-11-16T21:01:57.682Z,32.55
2022-11-16T21:04:26.295Z,33.35
2022-11-16T21:06:59.405Z,30.58
2022-11-16T21:09:26.621Z,30.10
2022-11-16T21:12:12.170Z,31.10
2022-11-16T21:14:40.310Z,30.90
2022-11-16T21:17:07.714Z,30.20
2022-11-16T21:19:34.503Z,31.15
2022-11-16T21:22:01.226Z,31.52
2022-11-16T21:24:35.599Z,31.25
2022-11-16T21:27:02.334Z,31.75
2022-11-16T21:29:31.242Z,29.77
2022-11-16T21:31:58.486Z,31.85
2022-11-16T21:34:28.011Z,31.58
2022-11-16T21:36:54.755Z,31.02
2022-11-16T21:39:21.617Z,31.50
2022-11-16T21:41:48.932Z,29.55
2022-11-16T21:44:20.589Z,30.27
2022-11-16T21:46:57.857Z,30.17
2022-11-16T21:49:26.840Z,29.33
2022-11-16T21:51:53.982Z,30.88
2022-11-16T21:54:21.546Z,32.38
2022-11-16T21:56:49.485Z,31.17
2022-11-16T21:59:19.534Z,29.35
2022-11-16T22:02:01.817Z,29.98
2022-11-16T22:04:47.228Z,28.92
2022-11-16T22:07:38.754Z,30.13
2022-11-16T22:10:16.050Z,31.13
2022-11-16T22:12:45.253Z,29.60
2022-11-16T22:15:14.806Z,29.98
2022-11-16T22:17:45.399Z,27.95
2022-11-16T22:20:13.539Z,28.67
2022-11-16T22:22:40.794Z,30.50
2022-11-16T22:25:14.222Z,27.90
2022-11-16T22:28:13.528Z,29.08
2022-11-16T22:30:36.303Z,27.75
2022-11-16T22:33:03.522Z,27.95
2022-11-16T22:35:32.344Z,27.40
2022-11-16T22:37:59.814Z,25.98
2022-11-16T22:40:30.500Z,24.83
2022-11-16T22:42:59.059Z,26.20
2022-11-16T22:45:26.349Z,25.48
2022-11-16T22:47:55.015Z,27.30
2022-11-16T22:50:24.242Z,27.55
2022-11-16T22:52:53.209Z,28.35
2022-11-16T22:55:22.036Z,28.08
2022-11-16T22:57:51.973Z,26.90
2022-11-16T23:00:24.563Z,28.00
2022-11-16T23:02:53.032Z,26.73
2022-11-16T23:05:20.898Z,26.48
2022-11-16T23:11:04.166Z,28.00
2022-11-16T23:14:20.410Z,26.05
2022-11-16T23:16:45.576Z,23.90
2022-11-16T23:19:37.105Z,26.77
2022-11-16T23:22:25.534Z,25.65
2022-11-16T23:25:10.873Z,25.23
2022-11-16T23:27:59.425Z,26.38
2022-11-16T23:30:26.383Z,25.48
2022-11-16T23:32:53.452Z,22.75
2022-11-16T23:35:20.855Z,25.85
2022-11-16T23:38:01.482Z,24.75
2022-11-16T23:40:34.194Z,24.52
2022-11-16T23:43:23.075Z,24.27
2022-11-16T23:45:50.689Z,25.50
2022-11-16T23:48:22.700Z,23.65
2022-11-16T23:53:16.006Z,23.65
2022-11-16T23:55:42.555Z,23.90
2022-11-16T23:58:16.649Z,23.98
